Time;durP1;ratioP1;P1;durP2;ratioP2;P2;SDS_P1;SDS_P2;PMS_P1;PMS_P2;Temp;Humidity;BMP_temperature;BMP_pressure;BME280_temperature;BME280_humidity;BME280_pressure;Samples;Min_cycle;Max_cycle;Signal;HPM_P1;HPM_P2
2023/07/23 00:02:04;;;;;;;4.72;0.85;;;;;;;20.78;81.13;100732.59;5109928;28;20028;-73
2023/07/23 00:04:29;;;;;;;4.68;0.90;;;;;;;20.85;80.80;100721.97;5108743;28;20134;-73
2023/07/23 00:06:55;;;;;;;2.65;0.70;;;;;;;20.83;81.43;100718.72;5110765;28;20040;-72
2023/07/23 00:09:20;;;;;;;5.97;1.00;;;;;;;20.80;80.80;100724.41;5109036;28;20491;-72
2023/07/23 00:11:45;;;;;;;1.60;0.77;;;;;;;20.78;81.26;100729.94;5109469;28;20040;-72
2023/07/23 00:14:11;;;;;;;2.30;0.70;;;;;;;20.78;80.89;100723.84;5109778;28;20042;-72
2023/07/23 00:16:36;;;;;;;3.25;0.90;;;;;;;20.75;82.59;100721.59;5110331;28;20035;-73
2023/07/23 00:19:03;;;;;;;1.73;0.60;;;;;;;20.66;84.84;100712.22;5109774;28;20097;-72
2023/07/23 00:21:28;;;;;;;1.95;0.77;;;;;;;20.52;85.29;100706.13;5108352;28;20035;-72
2023/07/23 00:23:54;;;;;;;2.80;0.95;;;;;;;20.48;87.28;100704.88;5090849;28;20028;-72
2023/07/23 00:26:19;;;;;;;2.50;0.95;;;;;;;20.37;87.85;100697.50;5110435;28;20036;-72
2023/07/23 00:28:45;;;;;;;2.25;0.60;;;;;;;20.38;85.27;100699.19;5109755;28;20049;-73
2023/07/23 00:31:10;;;;;;;4.30;0.60;;;;;;;20.40;84.55;100697.16;5109833;28;20088;-72
2023/07/23 00:33:35;;;;;;;2.53;0.90;;;;;;;20.41;84.19;100694.28;5108866;28;20502;-73
2023/07/23 00:36:01;;;;;;;1.90;0.77;;;;;;;20.41;85.36;100701.41;5111221;28;20093;-72
2023/07/23 00:38:26;;;;;;;2.28;1.13;;;;;;;20.32;86.79;100687.53;5108436;28;20024;-73
2023/07/23 00:40:52;;;;;;;2.15;0.50;;;;;;;20.39;85.77;100687.56;5104354;28;20036;-72
2023/07/23 00:43:18;;;;;;;1.52;0.55;;;;;;;20.36;85.34;100690.59;5114796;28;20031;-72
2023/07/23 00:45:43;;;;;;;1.52;1.05;;;;;;;20.42;83.33;100689.81;5113591;28;20028;-72
2023/07/23 00:48:09;;;;;;;3.75;0.75;;;;;;;20.57;81.18;100701.03;5109724;28;20038;-73
2023/07/23 00:50:34;;;;;;;1.85;0.80;;;;;;;20.67;80.56;100693.50;5109857;28;20027;-73
2023/07/23 00:53:00;;;;;;;1.90;0.80;;;;;;;20.72;79.42;100690.22;5112722;27;20031;-73
2023/07/23 00:55:26;;;;;;;2.38;0.80;;;;;;;20.73;80.24;100682.09;5114144;27;20046;-73
2023/07/23 00:57:52;;;;;;;2.10;0.60;;;;;;;20.69;80.93;100691.44;5113265;28;20024;-73
2023/07/23 01:00:17;;;;;;;2.47;0.75;;;;;;;20.64;80.33;100688.59;5112625;28;20028;-72
2023/07/23 01:02:43;;;;;;;1.70;0.88;;;;;;;20.71;79.68;100688.59;5095488;28;20140;-72
2023/07/23 01:05:09;;;;;;;1.75;0.68;;;;;;;20.73;79.35;100687.38;5105153;28;20040;-72
2023/07/23 01:07:35;;;;;;;1.17;0.70;;;;;;;20.79;78.43;100689.22;5112668;28;20474;-73
2023/07/23 01:10:04;;;;;;;2.15;0.80;;;;;;;20.76;78.94;100686.97;5111975;28;20039;-72
2023/07/23 01:12:31;;;;;;;1.85;0.50;;;;;;;20.76;78.49;100678.22;5114210;27;20026;-72
2023/07/23 01:14:57;;;;;;;2.53;0.70;;;;;;;20.75;78.26;100681.88;5112660;28;20050;-72
2023/07/23 01:17:23;;;;;;;1.58;0.57;;;;;;;20.75;78.70;100680.03;5112502;28;20494;-72
2023/07/23 01:20:18;;;;;;;2.53;0.70;;;;;;;20.78;73.97;100670.88;5112107;28;20031;-73
2023/07/23 01:22:43;;;;;;;1.35;0.50;;;;;;;20.81;77.50;100673.09;5100840;27;20054;-72
2023/07/23 01:25:09;;;;;;;1.05;0.60;;;;;;;20.76;77.67;100678.22;5111819;28;20045;-73
2023/07/23 01:27:34;;;;;;;3.22;0.88;;;;;;;20.72;77.86;100675.16;5112290;28;20497;-73
2023/07/23 01:30:00;;;;;;;1.55;0.77;;;;;;;20.64;78.33;100667.44;5109271;28;20035;-72
2023/07/23 01:32:26;;;;;;;1.92;0.90;;;;;;;20.62;78.79;100666.81;5117618;27;20115;-72
2023/07/23 01:34:52;;;;;;;2.38;0.68;;;;;;;20.56;79.05;100664.97;5111498;28;20051;-72
2023/07/23 01:37:18;;;;;;;5.22;0.98;;;;;;;20.50;79.61;100657.88;5113838;27;20040;-73
2023/07/23 01:39:44;;;;;;;2.88;0.75;;;;;;;20.43;79.97;100659.69;5112237;28;20024;-72
2023/07/23 01:42:11;;;;;;;3.00;0.90;;;;;;;20.36;81.53;100658.84;5114553;27;20039;-72
2023/07/23 01:44:36;;;;;;;3.38;0.77;;;;;;;20.25;82.64;100660.28;5111611;28;20035;-72
2023/07/23 01:47:01;;;;;;;1.25;0.55;;;;;;;20.25;82.60;100656.84;5112279;28;20032;-73
2023/07/23 01:49:27;;;;;;;3.30;0.80;;;;;;;20.20;82.86;100655.59;5111691;28;20063;-73
2023/07/23 01:51:52;;;;;;;1.70;0.60;;;;;;;20.24;82.71;100656.00;5112888;27;20038;-73
2023/07/23 01:54:18;;;;;;;1.40;0.52;;;;;;;20.30;81.71;100657.03;5111631;28;20032;-71
2023/07/23 01:56:43;;;;;;;2.95;0.88;;;;;;;20.29;80.96;100650.94;5118551;27;20125;-73
2023/07/23 01:59:08;;;;;;;1.60;0.50;;;;;;;20.26;80.80;100650.53;5112663;28;20047;-74
2023/07/23 02:01:35;;;;;;;2.22;0.77;;;;;;;20.25;81.01;100652.34;5109735;28;20035;-73
2023/07/23 02:04:01;;;;;;;2.08;0.73;;;;;;;20.21;81.49;100653.78;5111075;27;20027;-73
2023/07/23 02:06:26;;;;;;;1.60;0.73;;;;;;;20.21;81.60;100651.13;5111352;28;20031;-73
2023/07/23 02:08:52;;;;;;;2.63;0.90;;;;;;;20.10;82.28;100649.09;5112122;28;20429;-75
2023/07/23 02:11:17;;;;;;;1.15;0.50;;;;;;;20.13;81.54;100646.03;5112915;27;20490;-73
2023/07/23 02:13:44;;;;;;;1.60;0.47;;;;;;;20.17;81.05;100652.56;5112143;28;20038;-73
2023/07/23 02:16:16;;;;;;;1.20;0.60;;;;;;;20.11;80.25;100656.00;5111856;28;20031;-73
2023/07/23 02:18:42;;;;;;;2.22;0.88;;;;;;;20.05;82.46;100656.81;5111759;28;20640;-72
2023/07/23 02:21:07;;;;;;;1.63;0.63;;;;;;;19.95;83.00;100657.19;5116315;27;20034;-73
2023/07/23 02:23:33;;;;;;;4.88;0.65;;;;;;;19.83;84.50;100653.53;5110441;28;20039;-73
2023/07/23 02:25:58;;;;;;;3.38;0.70;;;;;;;19.73;85.28;100653.91;5113239;27;20035;-73
2023/07/23 02:28:23;;;;;;;3.10;0.80;;;;;;;19.63;85.72;100661.41;5112938;27;20025;-73
2023/07/23 02:30:56;;;;;;;1.63;0.63;;;;;;;19.58;84.33;100655.06;5115240;27;20028;-73
2023/07/23 02:33:22;;;;;;;2.97;0.98;;;;;;;19.58;85.24;100655.06;5111392;27;20031;-72
2023/07/23 02:35:47;;;;;;;1.42;0.68;;;;;;;19.62;84.23;100661.59;5117142;27;20048;-73
2023/07/23 02:38:13;;;;;;;1.30;0.47;;;;;;;19.65;84.64;100661.19;5111187;28;20035;-73
2023/07/23 02:40:38;;;;;;;1.50;0.73;;;;;;;19.67;84.71;100659.16;5108682;27;20033;-73
2023/07/23 02:43:04;;;;;;;1.65;0.63;;;;;;;19.74;84.37;100666.09;5109827;28;20023;-73
2023/07/23 02:45:29;;;;;;;1.10;0.52;;;;;;;19.77;84.39;100664.91;5110718;28;20449;-73
2023/07/23 02:47:55;;;;;;;5.82;0.73;;;;;;;19.83;83.53;100666.75;5111113;28;20474;-73
2023/07/23 02:50:20;;;;;;;1.30;0.50;;;;;;;19.88;83.26;100673.03;5109305;27;20040;-73
2023/07/23 02:52:46;;;;;;;2.50;0.98;;;;;;;19.94;83.26;100666.13;5108099;28;20681;-73
2023/07/23 02:55:11;;;;;;;1.65;0.80;;;;;;;19.97;82.41;100665.72;5114395;27;20035;-73
2023/07/23 02:57:37;;;;;;;1.33;0.70;;;;;;;20.02;81.49;100667.78;5110926;28;20035;-73
2023/07/23 03:00:03;;;;;;;1.20;0.50;;;;;;;20.01;81.52;100671.44;5110433;27;20146;-73
2023/07/23 03:02:29;;;;;;;1.85;0.63;;;;;;;20.02;81.53;100673.88;5110127;27;20098;-73
2023/07/23 03:04:54;;;;;;;2.17;1.00;;;;;;;20.06;81.60;100675.13;5108743;28;20408;-73
2023/07/23 03:07:19;;;;;;;2.33;1.05;;;;;;;20.04;81.75;100674.50;5110178;28;20032;-73
2023/07/23 03:09:46;;;;;;;1.67;0.88;;;;;;;20.04;82.14;100676.34;5109236;27;20035;-73
2023/07/23 03:12:11;;;;;;;3.40;1.08;;;;;;;20.02;81.84;100676.53;5111315;27;20035;-73
2023/07/23 03:14:36;;;;;;;4.80;1.30;;;;;;;20.04;82.32;100671.84;5109216;28;20023;-74
2023/07/23 03:17:02;;;;;;;2.08;0.85;;;;;;;20.02;82.35;100678.34;5110613;28;20398;-73
2023/07/23 03:19:27;;;;;;;2.80;0.70;;;;;;;19.98;82.86;100677.94;5109445;28;20075;-73
2023/07/23 03:21:53;;;;;;;3.55;1.48;;;;;;;19.95;83.28;100673.06;5112028;27;20027;-73
2023/07/23 03:24:18;;;;;;;3.42;1.02;;;;;;;19.94;82.93;100674.06;5107447;28;20031;-73
2023/07/23 03:26:44;;;;;;;1.50;0.90;;;;;;;19.93;83.17;100669.78;5108445;27;20054;-73
2023/07/23 03:29:09;;;;;;;2.13;0.93;;;;;;;19.98;83.19;100677.94;5109739;27;20020;-73
2023/07/23 03:31:34;;;;;;;2.95;1.15;;;;;;;20.06;82.45;100674.31;5108957;28;20028;-73
2023/07/23 03:34:00;;;;;;;2.30;0.88;;;;;;;20.00;82.23;100675.09;5110401;28;20039;-73
2023/07/23 03:36:27;;;;;;;3.10;0.63;;;;;;;19.89;83.48;100679.13;5109521;28;20051;-73
2023/07/23 03:38:52;;;;;;;1.38;0.60;;;;;;;19.83;83.75;100682.63;5110461;28;20039;-73
2023/07/23 03:41:18;;;;;;;3.00;0.82;;;;;;;19.82;82.87;100684.44;5111640;27;20039;-73
2023/07/23 03:43:43;;;;;;;2.05;0.75;;;;;;;19.87;83.19;100684.63;5110500;28;20031;-74
2023/07/23 03:46:09;;;;;;;1.88;0.93;;;;;;;19.86;83.54;100679.53;5110137;28;20136;-73
2023/07/23 03:48:34;;;;;;;3.63;0.50;;;;;;;19.82;83.38;100678.34;5109859;28;20024;-73
2023/07/23 03:51:00;;;;;;;2.58;0.57;;;;;;;19.83;83.36;100677.31;5115217;27;20062;-73
2023/07/23 03:53:25;;;;;;;4.20;1.05;;;;;;;19.82;84.07;100678.34;5107900;28;20300;-73
2023/07/23 03:55:50;;;;;;;6.28;0.95;;;;;;;19.78;84.39;100679.75;5115509;28;20396;-73
2023/07/23 03:58:16;;;;;;;2.53;0.50;;;;;;;19.82;83.86;100681.78;5109397;28;20048;-74
2023/07/23 04:00:41;;;;;;;2.08;0.70;;;;;;;19.92;83.43;100673.47;5113621;28;20084;-73
2023/07/23 04:03:07;;;;;;;2.38;0.80;;;;;;;20.01;83.02;100677.53;5113202;28;20068;-73
2023/07/23 04:05:32;;;;;;;3.97;0.60;;;;;;;20.10;82.07;100679.00;5109561;28;23589;-73
2023/07/23 04:07:58;;;;;;;1.50;0.60;;;;;;;20.13;81.39;100685.72;5110683;28;20043;-73
2023/07/23 04:10:23;;;;;;;2.03;0.93;;;;;;;20.17;82.15;100687.75;5108375;28;20032;-70
2023/07/23 04:12:48;;;;;;;1.42;0.63;;;;;;;20.17;82.80;100677.16;5116532;28;20088;-71
2023/07/23 04:15:14;;;;;;;2.90;0.98;;;;;;;20.11;82.86;100683.25;5109408;28;20057;-73
2023/07/23 04:17:39;;;;;;;2.13;0.90;;;;;;;20.07;82.80;100678.56;5110213;28;20104;-73
2023/07/23 04:20:05;;;;;;;4.63;0.55;;;;;;;20.01;83.18;100688.13;5107004;28;20039;-73
2023/07/23 04:22:31;;;;;;;2.53;1.00;;;;;;;19.96;83.33;100679.97;5115283;28;20042;-73
2023/07/23 04:24:56;;;;;;;2.17;1.00;;;;;;;19.96;83.13;100687.91;5109707;28;20031;-73
2023/07/23 04:27:22;;;;;;;2.85;0.90;;;;;;;19.98;83.50;100680.59;5114725;27;20126;-72
2023/07/23 04:29:47;;;;;;;4.00;0.90;;;;;;;19.96;84.20;100684.44;5114727;27;20440;-72
2023/07/23 04:32:12;;;;;;;4.10;0.70;;;;;;;19.89;84.35;100684.44;5120179;27;20065;-72
2023/07/23 04:34:39;;;;;;;1.92;0.60;;;;;;;19.86;84.63;100687.47;5112664;28;20539;-72
2023/07/23 04:37:06;;;;;;;1.83;0.98;;;;;;;19.84;85.16;100686.88;5113701;28;20035;-72
2023/07/23 04:39:31;;;;;;;4.72;0.63;;;;;;;19.84;85.53;100690.34;5112786;27;20023;-72
2023/07/23 04:41:57;;;;;;;1.77;0.65;;;;;;;19.86;85.61;100687.47;5119750;27;20058;-72
2023/07/23 04:44:23;;;;;;;3.63;0.82;;;;;;;19.87;84.89;100681.16;5113432;28;20100;-72
2023/07/23 04:46:48;;;;;;;3.92;0.80;;;;;;;19.91;85.28;100687.69;5114089;28;20035;-72
2023/07/23 04:49:13;;;;;;;2.35;0.60;;;;;;;19.94;85.29;100692.59;5113211;27;20027;-72
2023/07/23 04:51:39;;;;;;;6.70;0.80;;;;;;;20.02;84.72;100689.75;5117931;27;20032;-72
2023/07/23 04:54:04;;;;;;;1.77;0.75;;;;;;;20.10;84.10;100686.94;5113847;28;20387;-72
2023/07/23 04:56:30;;;;;;;3.22;0.43;;;;;;;20.14;84.08;100682.88;5117416;27;20378;-72
2023/07/23 04:58:55;;;;;;;2.28;0.63;;;;;;;20.16;84.08;100670.25;5113523;28;20258;-72
2023/07/23 05:01:21;;;;;;;2.90;0.65;;;;;;;20.20;83.87;100675.94;5114613;27;20040;-72
2023/07/23 05:03:47;;;;;;;1.73;0.82;;;;;;;20.23;83.47;100678.19;5117664;27;20035;-72
2023/07/23 05:06:12;;;;;;;1.65;0.98;;;;;;;20.32;83.53;100681.47;5114808;27;20038;-73
2023/07/23 05:08:37;;;;;;;3.20;0.77;;;;;;;20.48;83.57;100683.72;5112833;28;20059;-72
2023/07/23 05:11:04;;;;;;;1.65;0.60;;;;;;;20.60;83.65;100687.38;5113493;27;20100;-72
2023/07/23 05:13:31;;;;;;;2.97;0.60;;;;;;;20.72;83.06;100690.22;5110180;27;20035;-72
2023/07/23 05:15:58;;;;;;;2.75;0.70;;;;;;;20.76;83.55;100694.91;5106788;27;20055;-70
2023/07/23 05:18:24;;;;;;;1.42;0.60;;;;;;;20.65;82.79;100695.53;5113330;27;20076;-71
2023/07/23 05:20:50;;;;;;;3.75;0.57;;;;;;;20.63;82.83;100684.31;5111467;27;20032;-71
2023/07/23 05:23:16;;;;;;;1.58;0.57;;;;;;;20.63;82.74;100680.88;5093888;28;20096;-71
2023/07/23 05:25:44;;;;;;;3.38;0.60;;;;;;;20.64;81.45;100685.97;5113147;27;20074;-70
2023/07/23 05:28:10;;;;;;;3.17;0.93;;;;;;;20.67;82.15;100685.56;5113165;28;20375;-70
2023/07/23 05:30:36;;;;;;;1.50;0.60;;;;;;;20.73;82.21;100694.50;5112777;27;20038;-70
2023/07/23 05:33:01;;;;;;;2.53;0.82;;;;;;;20.74;81.80;100701.44;5109320;27;20035;-70
2023/07/23 05:35:27;;;;;;;2.78;0.85;;;;;;;20.76;81.93;100697.56;5112338;27;20063;-71
2023/07/23 05:37:52;;;;;;;2.38;0.77;;;;;;;20.79;82.06;100699.81;5115376;28;20042;-70
2023/07/23 05:40:18;;;;;;;1.83;0.70;;;;;;;20.82;82.32;100704.66;5112792;27;20030;-73
2023/07/23 05:42:43;;;;;;;3.72;0.63;;;;;;;20.93;81.72;100708.53;5114767;27;20035;-72
2023/07/23 05:45:09;;;;;;;1.98;0.70;;;;;;;21.04;81.88;100707.06;5111674;28;20043;-73
2023/07/23 05:47:35;;;;;;;1.55;0.82;;;;;;;21.12;81.55;100704.22;5110681;28;20030;-72
2023/07/23 05:50:00;;;;;;;1.88;0.73;;;;;;;21.06;81.19;100708.50;5111380;27;20165;-72
2023/07/23 05:52:26;;;;;;;1.95;0.80;;;;;;;21.09;81.63;100707.28;5112327;28;20039;-72
2023/07/23 05:54:51;;;;;;;1.83;0.50;;;;;;;21.02;80.67;100703.81;5112866;27;20038;-73
2023/07/23 05:57:16;;;;;;;1.83;0.90;;;;;;;20.94;82.18;100714.63;5117095;27;20483;-71
2023/07/23 05:59:42;;;;;;;5.10;0.70;;;;;;;20.99;82.20;100714.81;5109773;27;20028;-72
2023/07/23 06:02:07;;;;;;;1.45;0.50;;;;;;;21.11;81.48;100715.81;5112027;28;20386;-71
2023/07/23 06:04:32;;;;;;;1.60;0.60;;;;;;;21.12;81.48;100720.09;5109665;28;20498;-71
2023/07/23 06:06:58;;;;;;;2.85;0.90;;;;;;;21.03;81.18;100721.34;5114357;27;20446;-73
2023/07/23 06:09:25;;;;;;;2.60;0.70;;;;;;;21.06;81.73;100726.22;5111112;27;20038;-73
2023/07/23 06:11:51;;;;;;;1.65;0.52;;;;;;;21.22;81.01;100730.31;5111576;27;20028;-71
2023/07/23 06:14:17;;;;;;;1.65;0.60;;;;;;;21.33;81.08;100735.75;5113598;27;20034;-72
2023/07/23 06:16:42;;;;;;;1.85;0.80;;;;;;;21.45;80.72;100731.44;5111299;27;20032;-71
2023/07/23 06:19:07;;;;;;;2.05;0.65;;;;;;;21.47;80.64;100734.69;5111360;28;20035;-70
2023/07/23 06:21:33;;;;;;;1.20;0.60;;;;;;;21.52;80.79;100739.38;5111586;27;20031;-71
2023/07/23 06:23:58;;;;;;;1.60;0.60;;;;;;;21.48;80.68;100732.88;5114503;27;20038;-71
2023/07/23 06:26:24;;;;;;;1.50;0.50;;;;;;;21.57;80.74;100736.09;5109447;27;20031;-71
2023/07/23 06:28:49;;;;;;;4.38;0.90;;;;;;;21.66;80.12;100740.16;5112364;27;20075;-72
2023/07/23 06:31:14;;;;;;;2.38;0.57;;;;;;;21.66;80.49;100735.66;5107760;27;20027;-73
2023/07/23 06:33:40;;;;;;;6.60;0.85;;;;;;;21.77;80.61;100728.84;5087565;28;20066;-72
2023/07/23 06:36:06;;;;;;;2.85;0.60;;;;;;;21.89;79.73;100735.13;5109296;27;20427;-72
2023/07/23 06:38:32;;;;;;;1.63;0.65;;;;;;;21.91;79.77;100726.97;5089556;28;20110;-72
2023/07/23 06:40:57;;;;;;;1.70;0.60;;;;;;;22.06;80.07;100725.69;5112587;27;20038;-71
2023/07/23 06:43:23;;;;;;;2.95;0.80;;;;;;;22.15;79.36;100718.28;5109465;28;20044;-72
2023/07/23 06:45:50;;;;;;;1.30;0.50;;;;;;;22.26;79.96;100724.72;5107094;27;20027;-72
2023/07/23 06:48:17;;;;;;;2.95;0.90;;;;;;;22.42;78.93;100724.22;5114889;27;20035;-72
2023/07/23 06:50:46;;;;;;;2.13;0.70;;;;;;;22.44;79.48;100719.50;5112525;28;20027;-71
2023/07/23 06:53:12;;;;;;;2.53;0.73;;;;;;;22.54;78.80;100722.50;5112372;28;20413;-71
2023/07/23 06:55:58;;;;;;;6.88;0.80;;;;;;;22.46;76.54;100725.41;5112972;27;20056;-71
2023/07/23 06:58:23;;;;;;;1.90;0.70;;;;;;;22.39;78.82;100727.28;5119650;27;20023;-70
2023/07/23 07:00:49;;;;;;;4.38;0.50;;;;;;;22.37;78.60;100724.03;5112110;28;20336;-71
2023/07/23 07:03:14;;;;;;;1.10;0.50;;;;;;;22.48;79.13;100716.19;5111582;28;20066;-71
2023/07/23 07:05:39;;;;;;;2.13;0.73;;;;;;;22.72;78.83;100708.44;5111781;28;20516;-71
2023/07/23 07:08:05;;;;;;;1.42;0.47;;;;;;;22.74;78.13;100715.16;5120800;27;20138;-71
2023/07/23 07:10:30;;;;;;;1.40;0.52;;;;;;;22.80;78.27;100716.97;5112009;27;20031;-71
2023/07/23 07:12:56;;;;;;;1.45;0.60;;;;;;;22.90;77.93;100705.84;5116780;27;20091;-70
2023/07/23 07:15:21;;;;;;;1.30;0.55;;;;;;;23.02;78.02;100709.41;5101350;28;20023;-70
2023/07/23 07:17:47;;;;;;;2.83;0.70;;;;;;;23.08;77.63;100705.88;5118395;27;20040;-71
2023/07/23 07:20:12;;;;;;;2.00;0.60;;;;;;;23.11;77.38;100713.41;5111663;28;20057;-70
2023/07/23 07:22:38;;;;;;;2.45;0.50;;;;;;;23.14;77.73;100701.53;5102759;28;20047;-71
2023/07/23 07:25:03;;;;;;;3.17;0.45;;;;;;;23.21;77.41;100704.06;5096364;28;20126;-70
2023/07/23 07:27:29;;;;;;;1.70;0.50;;;;;;;23.34;76.39;100691.47;5114410;27;20030;-70
2023/07/23 07:29:55;;;;;;;2.08;0.80;;;;;;;23.30;76.71;100706.22;5111628;28;20494;-70
2023/07/23 07:32:20;;;;;;;2.55;0.63;;;;;;;23.33;77.40;100691.69;5111156;28;20138;-70
2023/07/23 07:34:45;;;;;;;2.13;0.60;;;;;;;23.52;76.61;100698.63;5111340;28;21079;-70
2023/07/23 07:37:11;;;;;;;1.55;0.60;;;;;;;23.61;76.03;100699.97;5111601;27;20051;-71
2023/07/23 07:39:37;;;;;;;1.00;0.40;;;;;;;23.71;76.02;100696.75;5099220;28;20078;-71
2023/07/23 07:42:03;;;;;;;1.33;0.50;;;;;;;23.83;75.70;100694.94;5107737;27;20043;-70
2023/07/23 07:44:28;;;;;;;3.03;0.60;;;;;;;23.83;74.74;100686.97;5110833;28;20118;-70
2023/07/23 07:46:54;;;;;;;3.30;0.88;;;;;;;23.91;75.17;100697.28;5116609;27;20115;-70
2023/07/23 07:49:19;;;;;;;2.85;0.80;;;;;;;23.95;74.90;100698.47;5110817;28;20042;-70
2023/07/23 07:51:47;;;;;;;2.83;0.90;;;;;;;24.07;74.41;100694.00;5111385;28;20123;-70
2023/07/23 07:54:13;;;;;;;2.20;0.70;;;;;;;24.16;74.76;100692.59;5111167;28;20513;-71
2023/07/23 07:56:39;;;;;;;3.40;1.08;;;;;;;24.26;74.34;100692.09;5108827;28;20028;-70
2023/07/23 07:59:06;;;;;;;1.58;0.60;;;;;;;24.33;73.36;100692.78;5105189;28;20032;-70
2023/07/23 08:01:31;;;;;;;2.92;1.05;;;;;;;24.42;73.29;100687.94;5101860;28;20037;-70
2023/07/23 08:03:57;;;;;;;4.00;0.80;;;;;;;24.63;73.50;100679.38;5111316;28;20042;-70
2023/07/23 08:06:24;;;;;;;2.28;0.82;;;;;;;24.64;72.96;100686.31;5109504;28;20032;-70
2023/07/23 08:08:51;;;;;;;1.27;0.60;;;;;;;24.71;73.32;100676.38;5101476;28;20482;-72
2023/07/23 08:11:17;;;;;;;1.23;0.70;;;;;;;24.80;72.86;100676.81;5111433;28;20076;-71
2023/07/23 08:13:43;;;;;;;1.35;0.60;;;;;;;24.93;72.25;100679.25;5106944;28;20117;-72
2023/07/23 08:16:12;;;;;;;2.35;1.20;;;;;;;25.09;72.29;100675.88;5107857;28;20035;-72
2023/07/23 08:18:38;;;;;;;1.23;0.50;;;;;;;25.33;72.12;100675.84;5109510;28;20119;-71
2023/07/23 08:21:04;;;;;;;3.13;0.80;;;;;;;25.46;71.75;100675.56;5109088;28;20130;-70
2023/07/23 08:23:30;;;;;;;3.55;0.90;;;;;;;25.43;71.11;100674.19;5110474;28;20031;-70
2023/07/23 08:25:58;;;;;;;3.30;0.90;;;;;;;25.49;70.23;100674.28;5102198;28;20483;-72
2023/07/23 08:28:28;;;;;;;3.63;0.77;;;;;;;25.56;70.56;100677.59;5102573;28;20498;-70
2023/07/23 08:30:56;;;;;;;1.20;0.70;;;;;;;25.63;71.13;100680.94;5099093;28;20024;-71
2023/07/23 08:33:24;;;;;;;4.05;0.80;;;;;;;25.71;70.95;100675.25;5099646;28;20527;-71
2023/07/23 08:35:50;;;;;;;2.72;0.68;;;;;;;25.83;70.68;100677.88;5110747;28;20048;-71
2023/07/23 08:38:16;;;;;;;2.85;0.80;;;;;;;25.93;70.14;100678.88;5110343;28;20035;-71
2023/07/23 08:40:44;;;;;;;4.25;1.00;;;;;;;26.07;70.61;100669.47;5099026;28;20085;-71
2023/07/23 08:43:09;;;;;;;4.53;1.00;;;;;;;26.25;70.08;100675.63;5107157;28;20031;-72
2023/07/23 08:46:03;;;;;;;4.60;0.73;;;;;;;26.31;67.86;100666.69;5110447;28;20053;-71
2023/07/23 08:48:40;;;;;;;5.28;0.88;;;;;;;26.41;67.57;100672.19;5107412;28;20028;-72
2023/07/23 08:51:07;;;;;;;3.58;1.15;;;;;;;26.47;68.89;100673.88;5098817;28;20032;-70
2023/07/23 08:53:33;;;;;;;2.40;0.90;;;;;;;26.51;68.51;100668.84;5108604;28;20501;-70
2023/07/23 08:55:58;;;;;;;2.70;1.17;;;;;;;26.69;68.27;100661.38;5112413;28;20028;-71
2023/07/23 08:58:24;;;;;;;3.00;1.20;;;;;;;26.80;68.76;100658.84;5112948;28;20146;-71
2023/07/23 09:00:49;;;;;;;2.75;1.20;;;;;;;26.96;68.20;100661.50;5116966;28;20363;-71
2023/07/23 09:03:20;;;;;;;3.22;1.10;;;;;;;27.08;68.02;100666.72;5110092;28;20475;-70
2023/07/23 09:05:46;;;;;;;3.38;1.50;;;;;;;27.09;66.77;100663.81;5102503;28;20122;-69
2023/07/23 09:08:11;;;;;;;5.10;1.50;;;;;;;27.29;66.88;100659.78;5102413;28;20538;-69
2023/07/23 09:10:37;;;;;;;4.57;2.30;;;;;;;27.33;65.76;100663.56;5110599;28;20034;-70
2023/07/23 09:13:14;;;;;;;2.85;1.58;;;;;;;27.32;63.40;100659.28;5115155;28;20058;-69
2023/07/23 09:15:52;;;;;;;2.00;1.58;;;;;;;27.35;65.84;100662.25;5116489;27;20028;-69
2023/07/23 09:18:19;;;;;;;3.63;1.50;;;;;;;27.36;65.34;100669.22;5115691;27;20036;-69
2023/07/23 09:20:48;;;;;;;4.07;1.98;;;;;;;27.36;64.40;100663.88;5110331;27;20064;-69
2023/07/23 09:23:14;;;;;;;2.95;1.58;;;;;;;27.46;64.12;100665.03;5115036;27;20364;-69
2023/07/23 09:25:43;;;;;;;4.30;1.73;;;;;;;27.41;64.22;100660.44;5114066;28;20046;-69
2023/07/23 09:28:19;;;;;;;4.85;1.50;;;;;;;27.53;64.85;100661.09;5093609;27;20038;-69
2023/07/23 09:30:45;;;;;;;5.72;2.00;;;;;;;27.51;65.31;100657.03;5114446;27;20063;-69
2023/07/23 09:33:12;;;;;;;4.40;1.90;;;;;;;27.67;65.59;100657.00;5105757;27;20035;-69
2023/07/23 09:35:38;;;;;;;5.13;2.17;;;;;;;27.82;65.84;100653.66;5104736;28;20112;-70
2023/07/23 09:38:04;;;;;;;2.03;1.40;;;;;;;27.76;63.87;100665.38;5111223;27;20035;-70
2023/07/23 09:40:37;;;;;;;3.58;1.92;;;;;;;27.68;63.60;100660.47;5119433;27;20019;-70
2023/07/23 09:43:03;;;;;;;4.07;1.83;;;;;;;27.67;64.05;100661.53;5116765;27;20037;-70
2023/07/23 09:45:36;;;;;;;3.38;1.67;;;;;;;27.62;61.05;100656.13;5113644;27;20039;-69
2023/07/23 09:48:02;;;;;;;4.45;2.40;;;;;;;27.71;63.83;100655.44;5113689;28;20031;-70
2023/07/23 09:50:29;;;;;;;4.32;2.13;;;;;;;27.75;62.71;100659.22;5117121;27;20077;-70
2023/07/23 09:52:54;;;;;;;3.13;1.83;;;;;;;27.67;62.11;100664.22;5113811;27;20035;-69
2023/07/23 09:55:20;;;;;;;6.25;2.25;;;;;;;27.73;61.04;100652.50;5111873;28;20047;-70
2023/07/23 09:57:51;;;;;;;3.75;1.73;;;;;;;27.81;62.77;100649.38;5103732;28;20027;-69
2023/07/23 10:00:18;;;;;;;4.90;2.00;;;;;;;28.02;62.98;100647.66;5113727;27;20105;-69
2023/07/23 10:02:47;;;;;;;3.17;1.92;;;;;;;28.03;62.56;100652.75;5105605;28;20043;-69
2023/07/23 10:05:15;;;;;;;4.03;2.30;;;;;;;28.02;62.29;100648.47;5113244;28;20035;-69
2023/07/23 10:07:41;;;;;;;3.75;1.67;;;;;;;28.25;63.51;100646.53;5110732;28;20059;-69
2023/07/23 10:10:07;;;;;;;4.80;1.90;;;;;;;28.24;63.45;100644.94;5114951;27;20085;-70
2023/07/23 10:12:32;;;;;;;4.93;1.98;;;;;;;28.07;63.66;100643.16;5112115;28;20051;-70
2023/07/23 10:14:58;;;;;;;6.75;1.80;;;;;;;28.18;63.33;100645.91;5106999;27;20034;-69
2023/07/23 10:17:25;;;;;;;4.03;1.90;;;;;;;27.90;63.43;100645.13;5103714;28;20038;-70
2023/07/23 10:19:52;;;;;;;3.17;2.03;;;;;;;27.75;64.44;100648.50;5103295;27;20036;-70
2023/07/23 10:22:17;;;;;;;4.10;1.83;;;;;;;27.84;63.98;100640.81;5082634;28;20039;-69
2023/07/23 10:24:43;;;;;;;4.10;1.40;;;;;;;28.06;63.65;100633.50;5104093;28;20356;-69
2023/07/23 10:27:14;;;;;;;7.43;1.90;;;;;;;28.37;63.34;100628.38;5103788;28;20531;-69
2023/07/23 10:29:40;;;;;;;8.02;2.97;;;;;;;28.31;65.71;100632.13;5104318;28;20100;-69
2023/07/23 10:32:26;;;;;;;3.55;1.83;;;;;;;28.15;64.07;100631.16;5112896;28;20035;-70
2023/07/23 10:34:54;;;;;;;5.28;1.80;;;;;;;28.33;66.07;100628.13;5112464;28;20048;-70
2023/07/23 10:37:21;;;;;;;2.83;1.95;;;;;;;28.51;64.86;100618.81;5106157;27;20080;-69
2023/07/23 10:39:49;;;;;;;6.57;2.72;;;;;;;28.67;64.50;100622.41;5107784;28;20218;-69
2023/07/23 10:42:29;;;;;;;5.45;2.03;;;;;;;28.85;63.01;100619.28;5099845;28;20043;-69
2023/07/23 10:45:17;;;;;;;3.45;1.45;;;;;;;28.97;63.34;100624.44;5100573;28;20115;-69
2023/07/23 10:47:48;;;;;;;2.47;1.80;;;;;;;29.17;63.08;100627.22;5100625;28;20107;-70
2023/07/23 10:50:16;;;;;;;4.63;1.75;;;;;;;28.95;62.36;100622.03;5099933;28;20035;-69
2023/07/23 10:52:52;;;;;;;5.68;1.85;;;;;;;28.58;62.54;100618.59;5112395;28;20088;-70
2023/07/23 10:55:40;;;;;;;3.97;2.05;;;;;;;28.21;62.07;100618.63;5102607;28;20043;-69
2023/07/23 10:58:13;;;;;;;2.80;1.70;;;;;;;28.05;63.86;100612.34;5099328;28;20053;-70
2023/07/23 11:00:44;;;;;;;6.13;1.80;;;;;;;28.12;63.38;100610.25;5108240;28;20027;-70
2023/07/23 11:03:16;;;;;;;4.60;1.83;;;;;;;28.08;62.96;100604.59;5081634;28;20379;-69
2023/07/23 11:05:42;;;;;;;4.50;1.77;;;;;;;28.03;63.52;100603.75;5100250;28;20039;-69
2023/07/23 11:08:26;;;;;;;3.47;1.38;;;;;;;28.06;63.60;100600.56;5113053;27;20029;-69
2023/07/23 11:11:05;;;;;;;5.95;2.17;;;;;;;28.24;63.48;100589.47;5100024;28;20035;-69
2023/07/23 11:13:32;;;;;;;6.30;3.00;;;;;;;28.62;63.58;100593.69;5110785;27;20027;-69
2023/07/23 11:15:58;;;;;;;3.78;2.00;;;;;;;28.95;63.94;100597.06;5111665;28;20023;-69
2023/07/23 11:18:24;;;;;;;4.38;2.10;;;;;;;29.21;63.40;100584.56;5117491;27;20059;-69
2023/07/23 11:20:52;;;;;;;4.68;2.10;;;;;;;29.38;63.68;100590.47;5111810;28;20075;-70
2023/07/23 11:23:20;;;;;;;6.47;2.88;;;;;;;29.38;63.36;100588.59;5111175;28;20051;-69